Impacts TAF Board INFO
FOR SITUATIONAL AWARENESS. NOT TO BE USED FOR FLIGHT PLANNING PURPOSES.
IDs:

KTPA - Tampa Intl Arpt, FL, US

Issued at 1501 UTC 21 Jul 2017
Updated at 1519 UTC 21 Jul 2017
Potential Impact None Slight Moderate High
Time1453Z 21/16Z 21/17Z 21/18Z 21/19Z 21/20Z 21/21Z 21/22Z 21/23Z 22/00Z 22/01Z 22/02Z 22/03Z 22/04Z>>
Type OBS PRVL PRVL PRVL PRVL PRVL PRVL PRVL PRVL PRVL PRVL PRVL PRVL PRVL
VIS 10 >6 >6 >6 >6 >6 >6 >6 >6 >6 >6 >6 >6 >6
CIG 240 -- -- -- -- -- -- -- -- -- -- -- -- --
Cover BKN SCT SCT SCT SCT SCT SCT SCT SCT SCT SCT SCT SCT SCT
FltCat VFR VFR VFR VFR VFR VFR VFR VFR VFR VFR VFR VFR VFR VFR
WX -- VCTS VCTS VCTS VCTS VCTS VCTS VCTS VCTS VCTS VCTS -- -- --
WDir VRB 220 220 250 250 250 250 250 250 250 250 VRB VRB VRB
WSpd 6 4 4 7 7 7 7 7 7 7 7 3 3 3
WGst -- -- -- -- -- -- -- -- -- -- -- -- -- --

Raw TAF
KTPA 211501Z 2115/2212 22004KT P6SM VCTS SCT025CB SCT250
  FM211800 25007KT P6SM VCTS SCT030CB SCT250
  FM220200 VRB03KT P6SM SCT250


Raw METAR
KTPA 211453Z VRB06KT 10SM SCT022CB BKN240 30/25 A3008 RMK AO2 LTG DSNT NW SLP186 CB NW-N MOV E T03000250 50010
KTPA 211353Z 12005KT 10SM FEW020 BKN240 29/24 A3008 RMK AO2 SLP186 CB DSNT NW T02940244
KTPA 211253Z COR 00000KT 10SM FEW020 SCT120 BKN250 29/24 A3007 RMK AO2 SLP180 CB DSNT SW AND NW T02890239

METAR Board
Radar Display
Forecast Discussion

FOR SITUATIONAL AWARENESS. NOT TO BE USED FOR FLIGHT PLANNING PURPOSES.